Gretna, Florida
Current Conditions -  °F | °C
As of 5:15 PM on Thursday 18 Dec 2014 (Local Time) from K2J9 Reporting Station
Clear Clear  
Wind Chill: 61°   Ceiling: Unl
Heat Index: 61°   Visibility: 10mi
Dew Point: 36°   Wind: 0mph
Humidity: 39%   Direction: NA
Pressure: 30.13"   Gusts: NA
Location:  30.62°N, 84.66°W
Report Text: K2J9 182215Z AUTO 00000KT 10SM CLR 16/02 A3013 RMK AO1
Loading
Personal Weather Stations






























Interactive Weather Map New forecast layout! Learn more

10-Day Weather Forecast

Advertisements
Track Severe Weather on mobile